Rossville, Indiana
Current Conditions -  °F | °C
As of 12:15 AM on Saturday 29 Nov 2014 (Local Time) from KFKR Reporting Station
Clear Clear  
Wind Chill: 23°   Ceiling: Unl
Heat Index: 29°   Visibility: 10mi
Dew Point: 26°   Wind: 6mph
Humidity: 86%   Direction: 130°SE
Pressure: 29.98"   Gusts: NA
Location:  40.42°N, 86.59°W
Report Text: KFKR 290515Z AUTO 13005KT 10SM CLR M01/M04 A2998 RMK AO2 T10151036
Loading
Personal Weather Stations






























Interactive Weather Map New forecast layout! Learn more

10-Day Weather Forecast

Advertisements
Track Severe Weather on mobile